sensor_id;sensor_type;location;lat;lon;timestamp;pressure;altitude;pressure_sealevel;temperature;humidity
49108;BME280;36693;47.666;-2.774;2022-08-30T00:01:33;101235.23;;;21.54;43.87
49108;BME280;36693;47.666;-2.774;2022-08-30T00:04:01;101240.38;;;20.94;45.26
49108;BME280;36693;47.666;-2.774;2022-08-30T00:06:30;101243.99;;;20.68;45.21
49108;BME280;36693;47.666;-2.774;2022-08-30T00:08:58;101241.40;;;20.92;44.36
49108;BME280;36693;47.666;-2.774;2022-08-30T00:11:27;101243.53;;;21.74;43.44
49108;BME280;36693;47.666;-2.774;2022-08-30T00:13:56;101241.14;;;21.43;43.92
49108;BME280;36693;47.666;-2.774;2022-08-30T00:16:25;101247.48;;;21.58;43.47
49108;BME280;36693;47.666;-2.774;2022-08-30T00:18:53;101242.72;;;21.83;43.05
49108;BME280;36693;47.666;-2.774;2022-08-30T00:21:22;101250.97;;;21.29;44.67
49108;BME280;36693;47.666;-2.774;2022-08-30T00:23:50;101246.23;;;21.79;43.93
49108;BME280;36693;47.666;-2.774;2022-08-30T00:26:17;101251.28;;;21.96;43.31
49108;BME280;36693;47.666;-2.774;2022-08-30T00:28:45;101253.79;;;21.90;43.32
49108;BME280;36693;47.666;-2.774;2022-08-30T00:31:13;101244.91;;;20.93;45.80
49108;BME280;36693;47.666;-2.774;2022-08-30T00:33:41;101245.34;;;19.98;47.58
49108;BME280;36693;47.666;-2.774;2022-08-30T00:36:08;101242.96;;;20.97;46.34
49108;BME280;36693;47.666;-2.774;2022-08-30T00:38:37;101246.32;;;20.06;47.53
49108;BME280;36693;47.666;-2.774;2022-08-30T00:41:04;101246.62;;;20.66;46.00
49108;BME280;36693;47.666;-2.774;2022-08-30T00:43:35;101244.86;;;20.73;45.38
49108;BME280;36693;47.666;-2.774;2022-08-30T00:46:03;101242.15;;;20.68;46.53
49108;BME280;36693;47.666;-2.774;2022-08-30T00:48:31;101243.19;;;20.29;46.83
49108;BME280;36693;47.666;-2.774;2022-08-30T00:51:03;101246.16;;;20.47;45.78
49108;BME280;36693;47.666;-2.774;2022-08-30T00:53:36;101238.39;;;20.62;45.78
49108;BME280;36693;47.666;-2.774;2022-08-30T00:56:06;101244.61;;;20.97;46.05
49108;BME280;36693;47.666;-2.774;2022-08-30T00:58:37;101238.01;;;20.12;46.68
49108;BME280;36693;47.666;-2.774;2022-08-30T01:01:07;101241.81;;;19.71;48.32
49108;BME280;36693;47.666;-2.774;2022-08-30T01:03:37;101250.64;;;20.82;45.40
49108;BME280;36693;47.666;-2.774;2022-08-30T01:06:06;101247.02;;;21.37;44.56
49108;BME280;36693;47.666;-2.774;2022-08-30T01:08:34;101246.66;;;20.54;45.94
49108;BME280;36693;47.666;-2.774;2022-08-30T01:11:03;101248.99;;;20.86;45.07
49108;BME280;36693;47.666;-2.774;2022-08-30T01:13:33;101243.34;;;20.13;45.39
49108;BME280;36693;47.666;-2.774;2022-08-30T01:16:02;101241.37;;;20.56;45.78
49108;BME280;36693;47.666;-2.774;2022-08-30T01:18:30;101229.63;;;20.03;47.34
49108;BME280;36693;47.666;-2.774;2022-08-30T01:21:04;101236.71;;;20.00;47.09
49108;BME280;36693;47.666;-2.774;2022-08-30T01:23:37;101242.71;;;21.29;44.41
49108;BME280;36693;47.666;-2.774;2022-08-30T01:26:06;101242.08;;;21.75;43.44
49108;BME280;36693;47.666;-2.774;2022-08-30T01:28:35;101239.93;;;21.23;43.72
49108;BME280;36693;47.666;-2.774;2022-08-30T01:31:04;101237.00;;;21.37;44.11
49108;BME280;36693;47.666;-2.774;2022-08-30T01:33:32;101239.31;;;19.83;46.56
49108;BME280;36693;47.666;-2.774;2022-08-30T01:36:05;101240.89;;;21.42;43.87
49108;BME280;36693;47.666;-2.774;2022-08-30T01:38:36;101242.54;;;20.52;44.50
49108;BME280;36693;47.666;-2.774;2022-08-30T01:41:09;101247.29;;;20.88;44.22
49108;BME280;36693;47.666;-2.774;2022-08-30T01:43:37;101244.05;;;20.41;45.41
49108;BME280;36693;47.666;-2.774;2022-08-30T01:46:05;101242.19;;;21.11;44.62
49108;BME280;36693;47.666;-2.774;2022-08-30T01:48:33;101241.87;;;20.90;43.61
49108;BME280;36693;47.666;-2.774;2022-08-30T01:51:01;101245.28;;;20.89;44.40
49108;BME280;36693;47.666;-2.774;2022-08-30T01:53:29;101251.00;;;21.12;43.99
49108;BME280;36693;47.666;-2.774;2022-08-30T01:55:57;101246.07;;;19.90;45.96
49108;BME280;36693;47.666;-2.774;2022-08-30T01:58:26;101243.50;;;20.30;45.98
49108;BME280;36693;47.666;-2.774;2022-08-30T02:00:54;101241.33;;;20.53;45.27
49108;BME280;36693;47.666;-2.774;2022-08-30T02:03:21;101242.18;;;20.81;45.29
49108;BME280;36693;47.666;-2.774;2022-08-30T02:05:49;101244.19;;;19.69;46.91
49108;BME280;36693;47.666;-2.774;2022-08-30T02:08:17;101238.91;;;19.35;47.91
49108;BME280;36693;47.666;-2.774;2022-08-30T02:10:44;101246.40;;;19.58;47.54
49108;BME280;36693;47.666;-2.774;2022-08-30T02:13:12;101234.67;;;19.68;46.62
49108;BME280;36693;47.666;-2.774;2022-08-30T02:15:40;101236.18;;;19.49;47.37
49108;BME280;36693;47.666;-2.774;2022-08-30T02:18:07;101234.64;;;20.08;46.63
49108;BME280;36693;47.666;-2.774;2022-08-30T02:20:37;101232.81;;;20.47;44.67
49108;BME280;36693;47.666;-2.774;2022-08-30T02:23:06;101224.67;;;19.93;46.55
49108;BME280;36693;47.666;-2.774;2022-08-30T02:25:33;101229.45;;;20.46;45.08
49108;BME280;36693;47.666;-2.774;2022-08-30T02:28:01;101232.02;;;19.53;47.16
49108;BME280;36693;47.666;-2.774;2022-08-30T02:30:29;101237.81;;;19.72;46.44
49108;BME280;36693;47.666;-2.774;2022-08-30T02:32:57;101235.74;;;20.48;45.60
49108;BME280;36693;47.666;-2.774;2022-08-30T02:35:26;101244.63;;;20.29;44.83
49108;BME280;36693;47.666;-2.774;2022-08-30T02:37:53;101248.19;;;20.67;44.08
49108;BME280;36693;47.666;-2.774;2022-08-30T02:40:21;101244.25;;;20.01;45.07
49108;BME280;36693;47.666;-2.774;2022-08-30T02:42:49;101243.93;;;19.92;45.70
49108;BME280;36693;47.666;-2.774;2022-08-30T02:45:18;101251.49;;;19.72;46.70
49108;BME280;36693;47.666;-2.774;2022-08-30T02:47:45;101256.66;;;19.77;46.50
49108;BME280;36693;47.666;-2.774;2022-08-30T02:50:14;101258.32;;;19.39;47.29
49108;BME280;36693;47.666;-2.774;2022-08-30T02:52:42;101247.98;;;19.77;46.02
49108;BME280;36693;47.666;-2.774;2022-08-30T02:55:10;101245.64;;;20.15;45.37
49108;BME280;36693;47.666;-2.774;2022-08-30T02:57:38;101247.95;;;19.96;45.41
49108;BME280;36693;47.666;-2.774;2022-08-30T03:00:08;101246.22;;;19.45;46.96
49108;BME280;36693;47.666;-2.774;2022-08-30T03:02:36;101244.41;;;19.67;45.82
49108;BME280;36693;47.666;-2.774;2022-08-30T03:05:04;101242.97;;;20.30;45.07
49108;BME280;36693;47.666;-2.774;2022-08-30T03:07:32;101238.36;;;21.05;42.62
49108;BME280;36693;47.666;-2.774;2022-08-30T03:10:00;101238.66;;;19.55;46.16
49108;BME280;36693;47.666;-2.774;2022-08-30T03:12:28;101242.96;;;21.34;42.56
49108;BME280;36693;47.666;-2.774;2022-08-30T03:14:56;101243.37;;;19.95;45.29
49108;BME280;36693;47.666;-2.774;2022-08-30T03:17:24;101248.76;;;20.72;43.53
49108;BME280;36693;47.666;-2.774;2022-08-30T03:19:52;101241.06;;;21.86;41.03
49108;BME280;36693;47.666;-2.774;2022-08-30T03:22:20;101245.35;;;21.60;41.19
49108;BME280;36693;47.666;-2.774;2022-08-30T03:24:48;101250.02;;;20.50;43.47
49108;BME280;36693;47.666;-2.774;2022-08-30T03:27:16;101251.86;;;20.68;42.95
49108;BME280;36693;47.666;-2.774;2022-08-30T03:29:43;101250.56;;;20.55;43.21
49108;BME280;36693;47.666;-2.774;2022-08-30T03:32:11;101249.83;;;20.35;44.42
49108;BME280;36693;47.666;-2.774;2022-08-30T03:34:39;101253.12;;;20.58;43.41
49108;BME280;36693;47.666;-2.774;2022-08-30T03:37:07;101256.97;;;20.99;42.72
49108;BME280;36693;47.666;-2.774;2022-08-30T03:39:34;101253.83;;;21.44;41.72
49108;BME280;36693;47.666;-2.774;2022-08-30T03:42:02;101259.16;;;21.20;42.07
49108;BME280;36693;47.666;-2.774;2022-08-30T03:44:30;101261.72;;;20.39;42.54
49108;BME280;36693;47.666;-2.774;2022-08-30T03:46:57;101258.67;;;20.80;42.96
49108;BME280;36693;47.666;-2.774;2022-08-30T03:49:26;101259.34;;;20.72;42.86
49108;BME280;36693;47.666;-2.774;2022-08-30T03:51:54;101252.48;;;20.51;43.46
49108;BME280;36693;47.666;-2.774;2022-08-30T03:54:22;101250.80;;;20.19;44.07
49108;BME280;36693;47.666;-2.774;2022-08-30T03:56:49;101250.98;;;20.58;43.53
49108;BME280;36693;47.666;-2.774;2022-08-30T03:59:17;101253.14;;;20.89;42.57
49108;BME280;36693;47.666;-2.774;2022-08-30T04:01:45;101253.40;;;20.99;42.41
49108;BME280;36693;47.666;-2.774;2022-08-30T04:04:12;101251.55;;;20.63;42.55
49108;BME280;36693;47.666;-2.774;2022-08-30T04:06:40;101251.01;;;20.97;42.13
49108;BME280;36693;47.666;-2.774;2022-08-30T04:09:08;101249.81;;;21.00;42.32
49108;BME280;36693;47.666;-2.774;2022-08-30T04:11:35;101250.84;;;20.91;41.64
49108;BME280;36693;47.666;-2.774;2022-08-30T04:14:03;101251.24;;;21.25;41.83
49108;BME280;36693;47.666;-2.774;2022-08-30T04:16:31;101252.00;;;20.06;42.87
49108;BME280;36693;47.666;-2.774;2022-08-30T04:18:59;101254.35;;;21.17;42.21
49108;BME280;36693;47.666;-2.774;2022-08-30T04:21:27;101250.54;;;20.52;42.96
49108;BME280;36693;47.666;-2.774;2022-08-30T04:23:55;101253.15;;;21.06;42.01
49108;BME280;36693;47.666;-2.774;2022-08-30T04:26:24;101249.81;;;20.66;43.08
49108;BME280;36693;47.666;-2.774;2022-08-30T04:28:53;101246.65;;;20.65;43.05
49108;BME280;36693;47.666;-2.774;2022-08-30T04:31:20;101247.58;;;19.99;44.18
49108;BME280;36693;47.666;-2.774;2022-08-30T04:33:48;101254.50;;;20.48;42.95
49108;BME280;36693;47.666;-2.774;2022-08-30T04:36:16;101256.13;;;19.93;44.43
49108;BME280;36693;47.666;-2.774;2022-08-30T04:38:45;101254.08;;;19.97;43.52
49108;BME280;36693;47.666;-2.774;2022-08-30T04:41:14;101256.13;;;19.82;45.37
49108;BME280;36693;47.666;-2.774;2022-08-30T04:43:44;101257.75;;;19.54;44.78
49108;BME280;36693;47.666;-2.774;2022-08-30T04:46:12;101254.92;;;19.16;45.94
49108;BME280;36693;47.666;-2.774;2022-08-30T04:48:40;101252.32;;;19.41;45.01
49108;BME280;36693;47.666;-2.774;2022-08-30T04:51:09;101251.22;;;18.66;46.66
49108;BME280;36693;47.666;-2.774;2022-08-30T04:53:37;101252.85;;;19.12;45.50
49108;BME280;36693;47.666;-2.774;2022-08-30T04:56:07;101253.05;;;19.14;46.30
49108;BME280;36693;47.666;-2.774;2022-08-30T04:58:35;101251.76;;;19.73;44.77
49108;BME280;36693;47.666;-2.774;2022-08-30T05:01:03;101255.60;;;20.23;44.25
49108;BME280;36693;47.666;-2.774;2022-08-30T05:03:31;101260.32;;;19.77;44.11
49108;BME280;36693;47.666;-2.774;2022-08-30T05:05:59;101259.68;;;20.17;43.61
49108;BME280;36693;47.666;-2.774;2022-08-30T05:08:28;101263.11;;;20.52;43.25
49108;BME280;36693;47.666;-2.774;2022-08-30T05:10:56;101261.32;;;19.43;45.58
49108;BME280;36693;47.666;-2.774;2022-08-30T05:13:24;101268.10;;;20.46;43.44
49108;BME280;36693;47.666;-2.774;2022-08-30T05:15:51;101273.69;;;21.33;41.66
49108;BME280;36693;47.666;-2.774;2022-08-30T05:18:19;101274.69;;;21.60;41.04
49108;BME280;36693;47.666;-2.774;2022-08-30T05:20:47;101277.23;;;21.44;40.62
49108;BME280;36693;47.666;-2.774;2022-08-30T05:23:15;101281.87;;;21.47;40.32
49108;BME280;36693;47.666;-2.774;2022-08-30T05:25:42;101281.70;;;22.01;39.41
49108;BME280;36693;47.666;-2.774;2022-08-30T05:28:10;101281.26;;;22.34;39.02
49108;BME280;36693;47.666;-2.774;2022-08-30T05:30:38;101280.36;;;22.65;38.48
49108;BME280;36693;47.666;-2.774;2022-08-30T05:33:06;101281.51;;;21.96;39.46
49108;BME280;36693;47.666;-2.774;2022-08-30T05:35:33;101282.75;;;20.86;41.42
49108;BME280;36693;47.666;-2.774;2022-08-30T05:38:01;101283.29;;;20.69;42.26
49108;BME280;36693;47.666;-2.774;2022-08-30T05:40:29;101283.05;;;20.10;42.79
49108;BME280;36693;47.666;-2.774;2022-08-30T05:42:57;101280.98;;;20.61;42.66
49108;BME280;36693;47.666;-2.774;2022-08-30T05:45:25;101280.50;;;20.54;42.13
49108;BME280;36693;47.666;-2.774;2022-08-30T05:47:52;101279.44;;;21.28;41.34
49108;BME280;36693;47.666;-2.774;2022-08-30T05:50:20;101280.95;;;19.80;42.89
49108;BME280;36693;47.666;-2.774;2022-08-30T05:52:48;101284.58;;;20.42;43.02
49108;BME280;36693;47.666;-2.774;2022-08-30T05:55:16;101285.87;;;20.35;42.79
49108;BME280;36693;47.666;-2.774;2022-08-30T05:57:45;101286.24;;;20.23;43.06
49108;BME280;36693;47.666;-2.774;2022-08-30T06:00:15;101285.95;;;20.07;43.44
49108;BME280;36693;47.666;-2.774;2022-08-30T06:02:44;101288.37;;;20.10;43.34
49108;BME280;36693;47.666;-2.774;2022-08-30T06:05:12;101290.43;;;20.28;43.52
49108;BME280;36693;47.666;-2.774;2022-08-30T06:07:40;101290.80;;;19.55;43.61
49108;BME280;36693;47.666;-2.774;2022-08-30T06:10:08;101290.85;;;20.11;43.16
49108;BME280;36693;47.666;-2.774;2022-08-30T06:12:36;101296.39;;;20.05;42.68
49108;BME280;36693;47.666;-2.774;2022-08-30T06:15:04;101295.27;;;19.01;44.85
49108;BME280;36693;47.666;-2.774;2022-08-30T06:17:32;101292.19;;;20.13;43.48
49108;BME280;36693;47.666;-2.774;2022-08-30T06:20:00;101295.25;;;20.72;42.05
49108;BME280;36693;47.666;-2.774;2022-08-30T06:22:29;101306.84;;;21.37;40.59
49108;BME280;36693;47.666;-2.774;2022-08-30T06:24:56;101309.32;;;20.84;41.62
49108;BME280;36693;47.666;-2.774;2022-08-30T06:27:24;101307.49;;;22.23;39.39
49108;BME280;36693;47.666;-2.774;2022-08-30T06:29:52;101309.67;;;21.35;40.54
49108;BME280;36693;47.666;-2.774;2022-08-30T06:32:19;101314.42;;;21.73;39.48
49108;BME280;36693;47.666;-2.774;2022-08-30T06:34:47;101314.88;;;23.00;37.41
49108;BME280;36693;47.666;-2.774;2022-08-30T06:37:15;101317.20;;;23.55;35.41
49108;BME280;36693;47.666;-2.774;2022-08-30T06:39:43;101318.32;;;24.39;34.24
49108;BME280;36693;47.666;-2.774;2022-08-30T06:42:10;101319.46;;;24.56;33.92
49108;BME280;36693;47.666;-2.774;2022-08-30T06:44:38;101319.32;;;22.56;37.12
49108;BME280;36693;47.666;-2.774;2022-08-30T06:47:06;101320.64;;;21.42;39.84
49108;BME280;36693;47.666;-2.774;2022-08-30T06:49:33;101322.17;;;19.99;41.90
49108;BME280;36693;47.666;-2.774;2022-08-30T06:52:01;101318.61;;;19.87;43.48
49108;BME280;36693;47.666;-2.774;2022-08-30T06:54:29;101321.98;;;20.15;41.98
49108;BME280;36693;47.666;-2.774;2022-08-30T06:56:57;101322.82;;;21.39;39.82
49108;BME280;36693;47.666;-2.774;2022-08-30T06:59:26;101323.80;;;21.75;38.73
49108;BME280;36693;47.666;-2.774;2022-08-30T07:01:54;101332.39;;;21.77;38.67
49108;BME280;36693;47.666;-2.774;2022-08-30T07:04:22;101328.91;;;21.97;38.29
49108;BME280;36693;47.666;-2.774;2022-08-30T07:06:51;101318.34;;;23.80;34.98
49108;BME280;36693;47.666;-2.774;2022-08-30T07:09:19;101319.27;;;22.71;36.75
49108;BME280;36693;47.666;-2.774;2022-08-30T07:11:47;101324.38;;;22.06;38.16
49108;BME280;36693;47.666;-2.774;2022-08-30T07:14:15;101324.56;;;22.30;37.67
49108;BME280;36693;47.666;-2.774;2022-08-30T07:16:44;101321.41;;;23.54;36.24
49108;BME280;36693;47.666;-2.774;2022-08-30T07:19:12;101326.69;;;24.39;34.05
49108;BME280;36693;47.666;-2.774;2022-08-30T07:21:41;101327.07;;;23.09;36.16
49108;BME280;36693;47.666;-2.774;2022-08-30T07:24:10;101333.75;;;23.71;34.54
49108;BME280;36693;47.666;-2.774;2022-08-30T07:26:41;101340.80;;;24.09;34.32
49108;BME280;36693;47.666;-2.774;2022-08-30T07:29:09;101347.07;;;22.74;36.22
49108;BME280;36693;47.666;-2.774;2022-08-30T07:31:38;101359.58;;;21.51;37.49
49108;BME280;36693;47.666;-2.774;2022-08-30T07:34:07;101352.27;;;22.56;37.03
49108;BME280;36693;47.666;-2.774;2022-08-30T07:36:37;101346.90;;;22.87;36.58
49108;BME280;36693;47.666;-2.774;2022-08-30T07:39:06;101356.68;;;24.07;34.73
49108;BME280;36693;47.666;-2.774;2022-08-30T07:41:36;101356.53;;;23.15;35.72
49108;BME280;36693;47.666;-2.774;2022-08-30T07:44:04;101359.50;;;23.62;35.04
49108;BME280;36693;47.666;-2.774;2022-08-30T07:46:32;101360.52;;;22.72;35.83
49108;BME280;36693;47.666;-2.774;2022-08-30T07:49:00;101360.06;;;23.62;35.38
49108;BME280;36693;47.666;-2.774;2022-08-30T07:51:30;101368.40;;;24.49;33.59
49108;BME280;36693;47.666;-2.774;2022-08-30T07:53:59;101369.76;;;24.26;34.55
49108;BME280;36693;47.666;-2.774;2022-08-30T07:56:27;101373.25;;;23.81;34.86
49108;BME280;36693;47.666;-2.774;2022-08-30T07:58:55;101377.98;;;24.00;34.75
49108;BME280;36693;47.666;-2.774;2022-08-30T08:01:23;101371.29;;;24.23;34.59
49108;BME280;36693;47.666;-2.774;2022-08-30T08:03:51;101370.15;;;23.27;35.70
49108;BME280;36693;47.666;-2.774;2022-08-30T08:06:20;101368.77;;;23.93;34.52
49108;BME280;36693;47.666;-2.774;2022-08-30T08:08:48;101369.00;;;23.74;34.75
49108;BME280;36693;47.666;-2.774;2022-08-30T08:11:18;101368.79;;;23.70;35.09
49108;BME280;36693;47.666;-2.774;2022-08-30T08:13:49;101366.01;;;24.05;34.32
49108;BME280;36693;47.666;-2.774;2022-08-30T08:16:17;101363.39;;;25.65;32.23
49108;BME280;36693;47.666;-2.774;2022-08-30T08:18:44;101367.65;;;23.99;33.73
49108;BME280;36693;47.666;-2.774;2022-08-30T08:21:12;101357.37;;;24.79;34.10
49108;BME280;36693;47.666;-2.774;2022-08-30T08:23:40;101363.58;;;23.70;34.41
49108;BME280;36693;47.666;-2.774;2022-08-30T08:26:08;101363.40;;;25.57;32.38
49108;BME280;36693;47.666;-2.774;2022-08-30T08:28:37;101372.45;;;23.97;34.22
49108;BME280;36693;47.666;-2.774;2022-08-30T08:31:13;101369.27;;;23.73;34.81
49108;BME280;36693;47.666;-2.774;2022-08-30T08:33:40;101374.27;;;25.59;32.26
49108;BME280;36693;47.666;-2.774;2022-08-30T08:36:08;101374.30;;;25.04;33.02
49108;BME280;36693;47.666;-2.774;2022-08-30T08:38:35;101383.78;;;25.10;32.04
49108;BME280;36693;47.666;-2.774;2022-08-30T08:41:08;101382.78;;;24.51;33.67
49108;BME280;36693;47.666;-2.774;2022-08-30T08:43:37;101387.76;;;24.81;32.85
49108;BME280;36693;47.666;-2.774;2022-08-30T08:46:11;101390.46;;;25.13;33.54
49108;BME280;36693;47.666;-2.774;2022-08-30T08:48:45;101388.64;;;25.48;32.47
49108;BME280;36693;47.666;-2.774;2022-08-30T08:51:16;101390.78;;;26.89;30.34
49108;BME280;36693;47.666;-2.774;2022-08-30T08:53:49;101403.42;;;26.31;31.05
49108;BME280;36693;47.666;-2.774;2022-08-30T08:56:19;101401.85;;;25.15;32.75
49108;BME280;36693;47.666;-2.774;2022-08-30T08:58:50;101404.88;;;25.73;32.24
49108;BME280;36693;47.666;-2.774;2022-08-30T09:01:20;101408.19;;;25.45;32.47
49108;BME280;36693;47.666;-2.774;2022-08-30T09:03:48;101412.45;;;26.12;30.99
49108;BME280;36693;47.666;-2.774;2022-08-30T09:06:25;101415.25;;;27.14;29.67
49108;BME280;36693;47.666;-2.774;2022-08-30T09:08:57;101411.94;;;27.23;30.31
49108;BME280;36693;47.666;-2.774;2022-08-30T09:11:27;101416.83;;;26.17;31.03
49108;BME280;36693;47.666;-2.774;2022-08-30T09:13:57;101413.21;;;27.44;29.56
49108;BME280;36693;47.666;-2.774;2022-08-30T09:16:59;101417.31;;;26.67;29.91
49108;BME280;36693;47.666;-2.774;2022-08-30T09:19:32;101422.31;;;27.09;30.07
49108;BME280;36693;47.666;-2.774;2022-08-30T09:22:03;101427.84;;;26.73;30.32
49108;BME280;36693;47.666;-2.774;2022-08-30T09:24:38;101431.52;;;28.92;27.57
49108;BME280;36693;47.666;-2.774;2022-08-30T09:27:26;101431.91;;;28.98;27.58
49108;BME280;36693;47.666;-2.774;2022-08-30T09:29:57;101430.75;;;29.72;26.77
49108;BME280;36693;47.666;-2.774;2022-08-30T09:32:29;101426.77;;;30.09;26.25
49108;BME280;36693;47.666;-2.774;2022-08-30T09:34:57;101431.11;;;26.79;29.63
49108;BME280;36693;47.666;-2.774;2022-08-30T09:37:30;101422.70;;;28.98;27.75
49108;BME280;36693;47.666;-2.774;2022-08-30T09:39:59;101418.11;;;28.63;27.48
49108;BME280;36693;47.666;-2.774;2022-08-30T09:42:29;101425.61;;;27.51;28.60
49108;BME280;36693;47.666;-2.774;2022-08-30T09:44:57;101422.23;;;27.75;28.87
49108;BME280;36693;47.666;-2.774;2022-08-30T09:47:29;101416.74;;;27.53;29.21
49108;BME280;36693;47.666;-2.774;2022-08-30T09:50:03;101418.73;;;28.14;28.60
49108;BME280;36693;47.666;-2.774;2022-08-30T09:52:40;101418.16;;;28.52;28.50
49108;BME280;36693;47.666;-2.774;2022-08-30T09:55:22;101420.10;;;29.08;27.13
49108;BME280;36693;47.666;-2.774;2022-08-30T09:57:58;101421.59;;;26.43;31.25
49108;BME280;36693;47.666;-2.774;2022-08-30T10:00:33;101423.90;;;26.98;30.95
49108;BME280;36693;47.666;-2.774;2022-08-30T10:03:22;101426.28;;;27.16;29.91
49108;BME280;36693;47.666;-2.774;2022-08-30T10:06:00;101419.43;;;28.67;28.01
49108;BME280;36693;47.666;-2.774;2022-08-30T10:08:39;101418.04;;;29.13;27.41
49108;BME280;36693;47.666;-2.774;2022-08-30T10:11:15;101417.64;;;30.78;25.75
49108;BME280;36693;47.666;-2.774;2022-08-30T10:13:56;101421.32;;;30.81;25.48
49108;BME280;36693;47.666;-2.774;2022-08-30T10:16:34;101417.18;;;27.37;29.77
49108;BME280;36693;47.666;-2.774;2022-08-30T10:19:17;101409.98;;;28.98;28.04
49108;BME280;36693;47.666;-2.774;2022-08-30T10:21:51;101408.57;;;28.71;28.15
49108;BME280;36693;47.666;-2.774;2022-08-30T10:24:25;101405.37;;;27.80;28.82
49108;BME280;36693;47.666;-2.774;2022-08-30T10:26:58;101407.36;;;30.28;26.50
49108;BME280;36693;47.666;-2.774;2022-08-30T10:29:32;101412.31;;;31.10;24.86
49108;BME280;36693;47.666;-2.774;2022-08-30T10:32:09;101409.65;;;31.40;24.60
49108;BME280;36693;47.666;-2.774;2022-08-30T10:34:40;101415.81;;;30.45;25.50
49108;BME280;36693;47.666;-2.774;2022-08-30T10:37:13;101412.08;;;29.53;26.88
49108;BME280;36693;47.666;-2.774;2022-08-30T10:39:46;101407.89;;;29.26;27.33
49108;BME280;36693;47.666;-2.774;2022-08-30T10:42:18;101405.60;;;29.51;27.40
49108;BME280;36693;47.666;-2.774;2022-08-30T10:44:51;101409.88;;;30.68;26.00
49108;BME280;36693;47.666;-2.774;2022-08-30T10:47:26;101409.53;;;30.09;26.40
49108;BME280;36693;47.666;-2.774;2022-08-30T10:50:06;101406.77;;;31.21;25.33
49108;BME280;36693;47.666;-2.774;2022-08-30T10:52:40;101405.49;;;28.94;27.51
49108;BME280;36693;47.666;-2.774;2022-08-30T10:55:14;101406.76;;;29.72;26.87
49108;BME280;36693;47.666;-2.774;2022-08-30T10:57:42;101411.66;;;30.45;25.95
49108;BME280;36693;47.666;-2.774;2022-08-30T11:00:13;101412.65;;;31.14;25.66
49108;BME280;36693;47.666;-2.774;2022-08-30T11:05:23;101403.25;;;32.97;23.64
49108;BME280;36693;47.666;-2.774;2022-08-30T11:08:01;101408.67;;;28.92;27.08
49108;BME280;36693;47.666;-2.774;2022-08-30T11:10:43;101401.89;;;31.39;24.61
49108;BME280;36693;47.666;-2.774;2022-08-30T11:13:16;101400.84;;;30.84;25.49
49108;BME280;36693;47.666;-2.774;2022-08-30T11:16:03;101402.31;;;31.64;24.84
49108;BME280;36693;47.666;-2.774;2022-08-30T11:18:34;101397.24;;;31.72;24.00
49108;BME280;36693;47.666;-2.774;2022-08-30T11:21:30;101397.60;;;32.04;24.53
49108;BME280;36693;47.666;-2.774;2022-08-30T11:24:03;101390.79;;;31.50;24.74
49108;BME280;36693;47.666;-2.774;2022-08-30T11:26:52;101390.50;;;32.11;23.70
49108;BME280;36693;47.666;-2.774;2022-08-30T11:29:39;101389.19;;;32.85;23.29
49108;BME280;36693;47.666;-2.774;2022-08-30T11:33:26;101387.64;;;33.14;23.08
49108;BME280;36693;47.666;-2.774;2022-08-30T11:35:54;101387.87;;;32.55;23.05
49108;BME280;36693;47.666;-2.774;2022-08-30T11:38:59;101385.88;;;32.35;24.05
49108;BME280;36693;47.666;-2.774;2022-08-30T11:41:33;101377.72;;;32.75;23.53
49108;BME280;36693;47.666;-2.774;2022-08-30T11:44:33;101377.67;;;32.38;23.46
49108;BME280;36693;47.666;-2.774;2022-08-30T11:47:34;101370.67;;;33.47;22.69
49108;BME280;36693;47.666;-2.774;2022-08-30T11:50:07;101372.98;;;32.37;23.13
49108;BME280;36693;47.666;-2.774;2022-08-30T11:52:45;101368.32;;;32.15;23.69
49108;BME280;36693;47.666;-2.774;2022-08-30T11:55:27;101367.87;;;32.70;23.32
49108;BME280;36693;47.666;-2.774;2022-08-30T11:58:09;101367.10;;;32.21;23.56
49108;BME280;36693;47.666;-2.774;2022-08-30T12:00:43;101360.76;;;33.24;22.87
49108;BME280;36693;47.666;-2.774;2022-08-30T12:03:28;101366.17;;;32.67;22.73
49108;BME280;36693;47.666;-2.774;2022-08-30T12:05:59;101358.23;;;33.35;22.28
49108;BME280;36693;47.666;-2.774;2022-08-30T12:08:59;101354.50;;;33.60;22.70
49108;BME280;36693;47.666;-2.774;2022-08-30T12:12:00;101349.76;;;32.61;23.00
49108;BME280;36693;47.666;-2.774;2022-08-30T12:14:39;101353.50;;;34.19;21.95
49108;BME280;36693;47.666;-2.774;2022-08-30T12:17:17;101356.22;;;34.72;21.43
49108;BME280;36693;47.666;-2.774;2022-08-30T12:19:46;101351.24;;;33.76;22.29
49108;BME280;36693;47.666;-2.774;2022-08-30T12:22:16;101355.50;;;33.15;22.87
49108;BME280;36693;47.666;-2.774;2022-08-30T12:24:49;101349.41;;;32.69;23.25
49108;BME280;36693;47.666;-2.774;2022-08-30T12:27:24;101350.00;;;34.38;21.68
49108;BME280;36693;47.666;-2.774;2022-08-30T12:29:54;101345.46;;;33.58;21.90
49108;BME280;36693;47.666;-2.774;2022-08-30T12:32:23;101346.91;;;34.56;21.57
49108;BME280;36693;47.666;-2.774;2022-08-30T12:34:52;101350.21;;;33.85;22.11
49108;BME280;36693;47.666;-2.774;2022-08-30T12:37:23;101344.91;;;33.73;21.67
49108;BME280;36693;47.666;-2.774;2022-08-30T12:40:01;101344.32;;;32.78;22.80
49108;BME280;36693;47.666;-2.774;2022-08-30T12:42:33;101341.70;;;33.75;22.65
49108;BME280;36693;47.666;-2.774;2022-08-30T12:45:05;101338.50;;;33.37;22.55
49108;BME280;36693;47.666;-2.774;2022-08-30T12:47:41;101339.62;;;33.40;22.94
49108;BME280;36693;47.666;-2.774;2022-08-30T12:50:18;101344.25;;;31.60;25.03
49108;BME280;36693;47.666;-2.774;2022-08-30T12:52:55;101338.42;;;32.15;24.07
49108;BME280;36693;47.666;-2.774;2022-08-30T12:55:27;101334.84;;;33.13;22.84
49108;BME280;36693;47.666;-2.774;2022-08-30T12:57:58;101332.41;;;33.52;22.84
49108;BME280;36693;47.666;-2.774;2022-08-30T13:00:29;101336.89;;;33.55;22.89
49108;BME280;36693;47.666;-2.774;2022-08-30T13:02:58;101330.79;;;33.66;23.24